<?xml version="1.0" encoding="UTF-8" standalone="no" ?>
<gpx xmlns="http://www.topografix.com/GPX/1/1" xmlns:xsi="http://www.w3.org/2001/XMLSchema-instance" xsi:schemaLocation="http://www.topografix.com/GPX/1/1 http://www.topografix.com/GPX/1/1/gpx.xsd" version="1.1" creator="VisuGPX - https://www.visugpx.com">
  <metadata>
    <name>40km billom</name>
  </metadata>
  <trk>
    <name><![CDATA[40km billom_1]]></name>
    <trkseg>
      <trkpt lat="45.72574" lon="3.34228">
        <ele>362</ele>
        <time>2019-06-13T09:10:41Z</time>
      </trkpt>
      <trkpt lat="45.72565" lon="3.3422">
        <ele>362</ele>
        <time>2019-06-13T09:10:43Z</time>
      </trkpt>
      <trkpt lat="45.72461" lon="3.34327">
        <ele>368</ele>
        <time>2019-06-13T09:11:13Z</time>
      </trkpt>
      <trkpt lat="45.72416" lon="3.34395">
        <ele>370</ele>
        <time>2019-06-13T09:11:29Z</time>
      </trkpt>
      <trkpt lat="45.72297" lon="3.34383">
        <ele>374</ele>
        <time>2019-06-13T09:11:57Z</time>
      </trkpt>
      <trkpt lat="45.72205" lon="3.344">
        <ele>378</ele>
        <time>2019-06-13T09:12:18Z</time>
      </trkpt>
      <trkpt lat="45.72155" lon="3.34397">
        <ele>380</ele>
        <time>2019-06-13T09:12:30Z</time>
      </trkpt>
      <trkpt lat="45.72147" lon="3.34392">
        <ele>379</ele>
        <time>2019-06-13T09:12:32Z</time>
      </trkpt>
      <trkpt lat="45.72121" lon="3.34415">
        <ele>381</ele>
        <time>2019-06-13T09:12:39Z</time>
      </trkpt>
      <trkpt lat="45.7206" lon="3.34471">
        <ele>384</ele>
        <time>2019-06-13T09:12:56Z</time>
      </trkpt>
      <trkpt lat="45.72042" lon="3.34508">
        <ele>386</ele>
        <time>2019-06-13T09:13:03Z</time>
      </trkpt>
      <trkpt lat="45.72097" lon="3.34928">
        <ele>380</ele>
        <time>2019-06-13T09:14:13Z</time>
      </trkpt>
      <trkpt lat="45.72114" lon="3.35043">
        <ele>379</ele>
        <time>2019-06-13T09:14:32Z</time>
      </trkpt>
      <trkpt lat="45.72061" lon="3.35007">
        <ele>380</ele>
        <time>2019-06-13T09:14:46Z</time>
      </trkpt>
      <trkpt lat="45.7197" lon="3.3515">
        <ele>379</ele>
        <time>2019-06-13T09:15:17Z</time>
      </trkpt>
      <trkpt lat="45.71896" lon="3.35329">
        <ele>376</ele>
        <time>2019-06-13T09:15:51Z</time>
      </trkpt>
      <trkpt lat="45.71841" lon="3.35422">
        <ele>376</ele>
        <time>2019-06-13T09:16:11Z</time>
      </trkpt>
      <trkpt lat="45.71822" lon="3.35578">
        <ele>381</ele>
        <time>2019-06-13T09:16:37Z</time>
      </trkpt>
      <trkpt lat="45.71814" lon="3.35743">
        <ele>379</ele>
        <time>2019-06-13T09:17:04Z</time>
      </trkpt>
      <trkpt lat="45.71794" lon="3.35805">
        <ele>375</ele>
        <time>2019-06-13T09:17:15Z</time>
      </trkpt>
      <trkpt lat="45.71735" lon="3.35848">
        <ele>374</ele>
        <time>2019-06-13T09:17:31Z</time>
      </trkpt>
      <trkpt lat="45.71706" lon="3.35903">
        <ele>375</ele>
        <time>2019-06-13T09:17:42Z</time>
      </trkpt>
      <trkpt lat="45.71726" lon="3.36017">
        <ele>378</ele>
        <time>2019-06-13T09:18:01Z</time>
      </trkpt>
      <trkpt lat="45.71704" lon="3.36139">
        <ele>381</ele>
        <time>2019-06-13T09:18:22Z</time>
      </trkpt>
      <trkpt lat="45.7167" lon="3.36199">
        <ele>379</ele>
        <time>2019-06-13T09:18:34Z</time>
      </trkpt>
      <trkpt lat="45.71595" lon="3.36223">
        <ele>377</ele>
        <time>2019-06-13T09:18:52Z</time>
      </trkpt>
      <trkpt lat="45.71611" lon="3.36294">
        <ele>375</ele>
        <time>2019-06-13T09:19:04Z</time>
      </trkpt>
      <trkpt lat="45.71625" lon="3.36366">
        <ele>379</ele>
        <time>2019-06-13T09:19:16Z</time>
      </trkpt>
      <trkpt lat="45.71614" lon="3.36437">
        <ele>384</ele>
        <time>2019-06-13T09:19:28Z</time>
      </trkpt>
      <trkpt lat="45.71583" lon="3.36575">
        <ele>397</ele>
        <time>2019-06-13T09:19:52Z</time>
      </trkpt>
      <trkpt lat="45.71434" lon="3.36983">
        <ele>425</ele>
        <time>2019-06-13T09:21:07Z</time>
      </trkpt>
      <trkpt lat="45.71348" lon="3.37159">
        <ele>448</ele>
        <time>2019-06-13T09:21:42Z</time>
      </trkpt>
      <trkpt lat="45.71203" lon="3.37364">
        <ele>469</ele>
        <time>2019-06-13T09:22:30Z</time>
      </trkpt>
      <trkpt lat="45.71167" lon="3.37507">
        <ele>480</ele>
        <time>2019-06-13T09:22:54Z</time>
      </trkpt>
      <trkpt lat="45.71151" lon="3.37536">
        <ele>483</ele>
        <time>2019-06-13T09:23:00Z</time>
      </trkpt>
      <trkpt lat="45.71117" lon="3.37571">
        <ele>490</ele>
        <time>2019-06-13T09:23:10Z</time>
      </trkpt>
      <trkpt lat="45.71133" lon="3.3763">
        <ele>490</ele>
        <time>2019-06-13T09:23:21Z</time>
      </trkpt>
      <trkpt lat="45.71142" lon="3.37765">
        <ele>490</ele>
        <time>2019-06-13T09:23:43Z</time>
      </trkpt>
      <trkpt lat="45.71099" lon="3.37806">
        <ele>496</ele>
        <time>2019-06-13T09:23:55Z</time>
      </trkpt>
      <trkpt lat="45.71022" lon="3.37785">
        <ele>502</ele>
        <time>2019-06-13T09:24:13Z</time>
      </trkpt>
      <trkpt lat="45.70936" lon="3.37754">
        <ele>505</ele>
        <time>2019-06-13T09:24:34Z</time>
      </trkpt>
      <trkpt lat="45.70865" lon="3.37771">
        <ele>509</ele>
        <time>2019-06-13T09:24:51Z</time>
      </trkpt>
      <trkpt lat="45.70848" lon="3.3779">
        <ele>510</ele>
        <time>2019-06-13T09:24:56Z</time>
      </trkpt>
      <trkpt lat="45.70827" lon="3.37901">
        <ele>514</ele>
        <time>2019-06-13T09:25:14Z</time>
      </trkpt>
      <trkpt lat="45.70815" lon="3.37919">
        <ele>515</ele>
        <time>2019-06-13T09:25:18Z</time>
      </trkpt>
      <trkpt lat="45.7075" lon="3.37845">
        <ele>513</ele>
        <time>2019-06-13T09:25:38Z</time>
      </trkpt>
      <trkpt lat="45.70701" lon="3.37822">
        <ele>512</ele>
        <time>2019-06-13T09:25:50Z</time>
      </trkpt>
      <trkpt lat="45.7065" lon="3.37815">
        <ele>511</ele>
        <time>2019-06-13T09:26:02Z</time>
      </trkpt>
      <trkpt lat="45.70586" lon="3.3778">
        <ele>506</ele>
        <time>2019-06-13T09:26:18Z</time>
      </trkpt>
      <trkpt lat="45.7044" lon="3.37794">
        <ele>501</ele>
        <time>2019-06-13T09:26:52Z</time>
      </trkpt>
      <trkpt lat="45.7033" lon="3.37805">
        <ele>490</ele>
        <time>2019-06-13T09:27:18Z</time>
      </trkpt>
      <trkpt lat="45.70274" lon="3.37878">
        <ele>488</ele>
        <time>2019-06-13T09:27:35Z</time>
      </trkpt>
      <trkpt lat="45.70216" lon="3.37891">
        <ele>475</ele>
        <time>2019-06-13T09:27:49Z</time>
      </trkpt>
      <trkpt lat="45.70151" lon="3.37925">
        <ele>466</ele>
        <time>2019-06-13T09:28:05Z</time>
      </trkpt>
      <trkpt lat="45.70088" lon="3.38039">
        <ele>461</ele>
        <time>2019-06-13T09:28:29Z</time>
      </trkpt>
      <trkpt lat="45.70021" lon="3.38116">
        <ele>464</ele>
        <time>2019-06-13T09:28:49Z</time>
      </trkpt>
      <trkpt lat="45.70003" lon="3.38212">
        <ele>461</ele>
        <time>2019-06-13T09:29:05Z</time>
      </trkpt>
      <trkpt lat="45.70008" lon="3.38266">
        <ele>461</ele>
        <time>2019-06-13T09:29:14Z</time>
      </trkpt>
      <trkpt lat="45.70052" lon="3.38312">
        <ele>463</ele>
        <time>2019-06-13T09:29:27Z</time>
      </trkpt>
      <trkpt lat="45.70124" lon="3.38334">
        <ele>470</ele>
        <time>2019-06-13T09:29:44Z</time>
      </trkpt>
      <trkpt lat="45.70146" lon="3.38423">
        <ele>465</ele>
        <time>2019-06-13T09:29:59Z</time>
      </trkpt>
      <trkpt lat="45.70123" lon="3.38467">
        <ele>465</ele>
        <time>2019-06-13T09:30:08Z</time>
      </trkpt>
      <trkpt lat="45.70056" lon="3.38488">
        <ele>464</ele>
        <time>2019-06-13T09:30:24Z</time>
      </trkpt>
      <trkpt lat="45.70036" lon="3.38465">
        <ele>466</ele>
        <time>2019-06-13T09:30:30Z</time>
      </trkpt>
      <trkpt lat="45.6999" lon="3.38496">
        <ele>471</ele>
        <time>2019-06-13T09:30:42Z</time>
      </trkpt>
      <trkpt lat="45.69962" lon="3.38551">
        <ele>489</ele>
        <time>2019-06-13T09:30:53Z</time>
      </trkpt>
      <trkpt lat="45.69966" lon="3.38628">
        <ele>491</ele>
        <time>2019-06-13T09:31:06Z</time>
      </trkpt>
      <trkpt lat="45.69978" lon="3.38695">
        <ele>488</ele>
        <time>2019-06-13T09:31:17Z</time>
      </trkpt>
      <trkpt lat="45.69979" lon="3.3878">
        <ele>486</ele>
        <time>2019-06-13T09:31:31Z</time>
      </trkpt>
      <trkpt lat="45.69993" lon="3.38838">
        <ele>479</ele>
        <time>2019-06-13T09:31:41Z</time>
      </trkpt>
      <trkpt lat="45.69931" lon="3.38874">
        <ele>495</ele>
        <time>2019-06-13T09:31:57Z</time>
      </trkpt>
      <trkpt lat="45.69838" lon="3.38892">
        <ele>508</ele>
        <time>2019-06-13T09:32:19Z</time>
      </trkpt>
      <trkpt lat="45.69733" lon="3.38892">
        <ele>516</ele>
        <time>2019-06-13T09:32:43Z</time>
      </trkpt>
      <trkpt lat="45.69681" lon="3.38869">
        <ele>524</ele>
        <time>2019-06-13T09:32:56Z</time>
      </trkpt>
      <trkpt lat="45.69654" lon="3.38864">
        <ele>527</ele>
        <time>2019-06-13T09:33:02Z</time>
      </trkpt>
      <trkpt lat="45.69567" lon="3.38745">
        <ele>540</ele>
        <time>2019-06-13T09:33:30Z</time>
      </trkpt>
      <trkpt lat="45.69526" lon="3.38725">
        <ele>543</ele>
        <time>2019-06-13T09:33:40Z</time>
      </trkpt>
      <trkpt lat="45.69482" lon="3.3872">
        <ele>545</ele>
        <time>2019-06-13T09:33:51Z</time>
      </trkpt>
      <trkpt lat="45.69443" lon="3.38652">
        <ele>551</ele>
        <time>2019-06-13T09:34:05Z</time>
      </trkpt>
      <trkpt lat="45.69385" lon="3.38599">
        <ele>573</ele>
        <time>2019-06-13T09:34:21Z</time>
      </trkpt>
      <trkpt lat="45.69313" lon="3.38634">
        <ele>585</ele>
        <time>2019-06-13T09:34:39Z</time>
      </trkpt>
      <trkpt lat="45.69257" lon="3.38761">
        <ele>593</ele>
        <time>2019-06-13T09:35:03Z</time>
      </trkpt>
      <trkpt lat="45.69287" lon="3.38824">
        <ele>580</ele>
        <time>2019-06-13T09:35:16Z</time>
      </trkpt>
      <trkpt lat="45.69268" lon="3.38865">
        <ele>584</ele>
        <time>2019-06-13T09:35:24Z</time>
      </trkpt>
      <trkpt lat="45.69235" lon="3.38905">
        <ele>589</ele>
        <time>2019-06-13T09:35:34Z</time>
      </trkpt>
      <trkpt lat="45.69194" lon="3.38915">
        <ele>601</ele>
        <time>2019-06-13T09:35:44Z</time>
      </trkpt>
      <trkpt lat="45.69197" lon="3.38973">
        <ele>603</ele>
        <time>2019-06-13T09:35:53Z</time>
      </trkpt>
      <trkpt lat="45.69394" lon="3.39102">
        <ele>602</ele>
        <time>2019-06-13T09:36:44Z</time>
      </trkpt>
      <trkpt lat="45.69411" lon="3.39128">
        <ele>601</ele>
        <time>2019-06-13T09:36:50Z</time>
      </trkpt>
      <trkpt lat="45.69274" lon="3.39141">
        <ele>620</ele>
        <time>2019-06-13T09:37:22Z</time>
      </trkpt>
      <trkpt lat="45.69107" lon="3.39123">
        <ele>628</ele>
        <time>2019-06-13T09:38:01Z</time>
      </trkpt>
      <trkpt lat="45.68973" lon="3.39061">
        <ele>631</ele>
        <time>2019-06-13T09:38:34Z</time>
      </trkpt>
      <trkpt lat="45.68839" lon="3.39091">
        <ele>642</ele>
        <time>2019-06-13T09:39:05Z</time>
      </trkpt>
      <trkpt lat="45.68754" lon="3.39127">
        <ele>652</ele>
        <time>2019-06-13T09:39:26Z</time>
      </trkpt>
      <trkpt lat="45.68667" lon="3.39143">
        <ele>653</ele>
        <time>2019-06-13T09:39:47Z</time>
      </trkpt>
      <trkpt lat="45.68622" lon="3.39133">
        <ele>652</ele>
        <time>2019-06-13T09:39:57Z</time>
      </trkpt>
      <trkpt lat="45.68567" lon="3.39163">
        <ele>650</ele>
        <time>2019-06-13T09:40:11Z</time>
      </trkpt>
      <trkpt lat="45.6861" lon="3.39047">
        <ele>651</ele>
        <time>2019-06-13T09:40:32Z</time>
      </trkpt>
      <trkpt lat="45.68739" lon="3.38946">
        <ele>652</ele>
        <time>2019-06-13T09:41:07Z</time>
      </trkpt>
      <trkpt lat="45.68644" lon="3.38901">
        <ele>657</ele>
        <time>2019-06-13T09:41:30Z</time>
      </trkpt>
      <trkpt lat="45.68521" lon="3.38809">
        <ele>665</ele>
        <time>2019-06-13T09:42:02Z</time>
      </trkpt>
      <trkpt lat="45.68393" lon="3.38789">
        <ele>671</ele>
        <time>2019-06-13T09:42:33Z</time>
      </trkpt>
      <trkpt lat="45.68296" lon="3.38758">
        <ele>681</ele>
        <time>2019-06-13T09:42:56Z</time>
      </trkpt>
      <trkpt lat="45.68187" lon="3.3874">
        <ele>688</ele>
        <time>2019-06-13T09:43:21Z</time>
      </trkpt>
      <trkpt lat="45.68063" lon="3.38737">
        <ele>692</ele>
        <time>2019-06-13T09:43:50Z</time>
      </trkpt>
      <trkpt lat="45.67948" lon="3.38735">
        <ele>693</ele>
        <time>2019-06-13T09:44:17Z</time>
      </trkpt>
      <trkpt lat="45.67901" lon="3.38719">
        <ele>695</ele>
        <time>2019-06-13T09:44:28Z</time>
      </trkpt>
      <trkpt lat="45.6783" lon="3.3869">
        <ele>698</ele>
        <time>2019-06-13T09:44:46Z</time>
      </trkpt>
      <trkpt lat="45.67832" lon="3.38615">
        <ele>690</ele>
        <time>2019-06-13T09:44:58Z</time>
      </trkpt>
      <trkpt lat="45.67886" lon="3.38415">
        <ele>677</ele>
        <time>2019-06-13T09:45:33Z</time>
      </trkpt>
      <trkpt lat="45.67941" lon="3.38319">
        <ele>668</ele>
        <time>2019-06-13T09:45:53Z</time>
      </trkpt>
      <trkpt lat="45.68068" lon="3.38151">
        <ele>649</ele>
        <time>2019-06-13T09:46:34Z</time>
      </trkpt>
      <trkpt lat="45.68199" lon="3.38055">
        <ele>636</ele>
        <time>2019-06-13T09:47:08Z</time>
      </trkpt>
      <trkpt lat="45.68238" lon="3.37968">
        <ele>635</ele>
        <time>2019-06-13T09:47:25Z</time>
      </trkpt>
      <trkpt lat="45.68371" lon="3.37924">
        <ele>629</ele>
        <time>2019-06-13T09:47:57Z</time>
      </trkpt>
      <trkpt lat="45.68457" lon="3.37847">
        <ele>617</ele>
        <time>2019-06-13T09:48:20Z</time>
      </trkpt>
      <trkpt lat="45.6832" lon="3.37802">
        <ele>619</ele>
        <time>2019-06-13T09:48:53Z</time>
      </trkpt>
      <trkpt lat="45.68244" lon="3.37792">
        <ele>616</ele>
        <time>2019-06-13T09:49:11Z</time>
      </trkpt>
      <trkpt lat="45.68165" lon="3.37808">
        <ele>617</ele>
        <time>2019-06-13T09:49:30Z</time>
      </trkpt>
      <trkpt lat="45.68161" lon="3.37773">
        <ele>616</ele>
        <time>2019-06-13T09:49:35Z</time>
      </trkpt>
      <trkpt lat="45.68176" lon="3.37648">
        <ele>613</ele>
        <time>2019-06-13T09:49:56Z</time>
      </trkpt>
      <trkpt lat="45.68173" lon="3.37575">
        <ele>610</ele>
        <time>2019-06-13T09:50:08Z</time>
      </trkpt>
      <trkpt lat="45.68355" lon="3.37479">
        <ele>589</ele>
        <time>2019-06-13T09:50:53Z</time>
      </trkpt>
      <trkpt lat="45.68483" lon="3.37388">
        <ele>582</ele>
        <time>2019-06-13T09:51:27Z</time>
      </trkpt>
      <trkpt lat="45.68625" lon="3.37183">
        <ele>567</ele>
        <time>2019-06-13T09:52:14Z</time>
      </trkpt>
      <trkpt lat="45.68695" lon="3.37248">
        <ele>565</ele>
        <time>2019-06-13T09:52:33Z</time>
      </trkpt>
      <trkpt lat="45.68727" lon="3.37189">
        <ele>561</ele>
        <time>2019-06-13T09:52:46Z</time>
      </trkpt>
      <trkpt lat="45.68743" lon="3.37088">
        <ele>557</ele>
        <time>2019-06-13T09:53:02Z</time>
      </trkpt>
      <trkpt lat="45.68727" lon="3.37027">
        <ele>554</ele>
        <time>2019-06-13T09:53:13Z</time>
      </trkpt>
      <trkpt lat="45.68798" lon="3.36855">
        <ele>553</ele>
        <time>2019-06-13T09:53:46Z</time>
      </trkpt>
      <trkpt lat="45.68565" lon="3.36866">
        <ele>564</ele>
        <time>2019-06-13T09:54:40Z</time>
      </trkpt>
      <trkpt lat="45.68461" lon="3.3689">
        <ele>573</ele>
        <time>2019-06-13T09:55:05Z</time>
      </trkpt>
      <trkpt lat="45.68379" lon="3.36885">
        <ele>585</ele>
        <time>2019-06-13T09:55:24Z</time>
      </trkpt>
      <trkpt lat="45.68377" lon="3.36814">
        <ele>580</ele>
        <time>2019-06-13T09:55:35Z</time>
      </trkpt>
      <trkpt lat="45.68313" lon="3.36734">
        <ele>582</ele>
        <time>2019-06-13T09:55:55Z</time>
      </trkpt>
      <trkpt lat="45.6828" lon="3.36671">
        <ele>586</ele>
        <time>2019-06-13T09:56:08Z</time>
      </trkpt>
      <trkpt lat="45.68294" lon="3.36456">
        <ele>577</ele>
        <time>2019-06-13T09:56:43Z</time>
      </trkpt>
      <trkpt lat="45.68287" lon="3.36267">
        <ele>562</ele>
        <time>2019-06-13T09:57:14Z</time>
      </trkpt>
      <trkpt lat="45.68266" lon="3.36168">
        <ele>555</ele>
        <time>2019-06-13T09:57:31Z</time>
      </trkpt>
      <trkpt lat="45.68231" lon="3.36027">
        <ele>553</ele>
        <time>2019-06-13T09:57:56Z</time>
      </trkpt>
      <trkpt lat="45.68166" lon="3.35993">
        <ele>557</ele>
        <time>2019-06-13T09:58:12Z</time>
      </trkpt>
      <trkpt lat="45.68101" lon="3.36032">
        <ele>562</ele>
        <time>2019-06-13T09:58:28Z</time>
      </trkpt>
      <trkpt lat="45.68078" lon="3.36099">
        <ele>565</ele>
        <time>2019-06-13T09:58:40Z</time>
      </trkpt>
      <trkpt lat="45.6791" lon="3.36123">
        <ele>560</ele>
        <time>2019-06-13T09:59:20Z</time>
      </trkpt>
      <trkpt lat="45.67793" lon="3.3616">
        <ele>554</ele>
        <time>2019-06-13T09:59:48Z</time>
      </trkpt>
      <trkpt lat="45.67731" lon="3.36252">
        <ele>566</ele>
        <time>2019-06-13T10:00:09Z</time>
      </trkpt>
      <trkpt lat="45.67695" lon="3.36224">
        <ele>555</ele>
        <time>2019-06-13T10:00:18Z</time>
      </trkpt>
      <trkpt lat="45.67593" lon="3.36254">
        <ele>560</ele>
        <time>2019-06-13T10:00:42Z</time>
      </trkpt>
      <trkpt lat="45.67486" lon="3.36216">
        <ele>554</ele>
        <time>2019-06-13T10:01:08Z</time>
      </trkpt>
      <trkpt lat="45.67397" lon="3.36247">
        <ele>557</ele>
        <time>2019-06-13T10:01:30Z</time>
      </trkpt>
      <trkpt lat="45.67322" lon="3.3639">
        <ele>570</ele>
        <time>2019-06-13T10:01:59Z</time>
      </trkpt>
      <trkpt lat="45.67254" lon="3.36456">
        <ele>574</ele>
        <time>2019-06-13T10:02:18Z</time>
      </trkpt>
      <trkpt lat="45.67146" lon="3.36455">
        <ele>577</ele>
        <time>2019-06-13T10:02:43Z</time>
      </trkpt>
      <trkpt lat="45.67081" lon="3.36431">
        <ele>576</ele>
        <time>2019-06-13T10:02:59Z</time>
      </trkpt>
      <trkpt lat="45.67049" lon="3.36485">
        <ele>579</ele>
        <time>2019-06-13T10:03:10Z</time>
      </trkpt>
      <trkpt lat="45.6695" lon="3.36572">
        <ele>581</ele>
        <time>2019-06-13T10:03:38Z</time>
      </trkpt>
      <trkpt lat="45.66948" lon="3.36402">
        <ele>580</ele>
        <time>2019-06-13T10:04:05Z</time>
      </trkpt>
      <trkpt lat="45.66883" lon="3.36393">
        <ele>581</ele>
        <time>2019-06-13T10:04:21Z</time>
      </trkpt>
      <trkpt lat="45.66801" lon="3.36423">
        <ele>579</ele>
        <time>2019-06-13T10:04:40Z</time>
      </trkpt>
      <trkpt lat="45.66716" lon="3.36399">
        <ele>580</ele>
        <time>2019-06-13T10:05:01Z</time>
      </trkpt>
      <trkpt lat="45.66618" lon="3.36396">
        <ele>578</ele>
        <time>2019-06-13T10:05:23Z</time>
      </trkpt>
      <trkpt lat="45.66519" lon="3.36253">
        <ele>582</ele>
        <time>2019-06-13T10:05:56Z</time>
      </trkpt>
      <trkpt lat="45.66406" lon="3.36162">
        <ele>588</ele>
        <time>2019-06-13T10:06:27Z</time>
      </trkpt>
      <trkpt lat="45.66336" lon="3.36126">
        <ele>590</ele>
        <time>2019-06-13T10:06:44Z</time>
      </trkpt>
      <trkpt lat="45.66232" lon="3.36007">
        <ele>595</ele>
        <time>2019-06-13T10:07:15Z</time>
      </trkpt>
      <trkpt lat="45.66133" lon="3.35922">
        <ele>593</ele>
        <time>2019-06-13T10:07:42Z</time>
      </trkpt>
      <trkpt lat="45.65983" lon="3.35894">
        <ele>594</ele>
        <time>2019-06-13T10:08:17Z</time>
      </trkpt>
      <trkpt lat="45.65878" lon="3.35821">
        <ele>596</ele>
        <time>2019-06-13T10:08:45Z</time>
      </trkpt>
      <trkpt lat="45.6574" lon="3.35562">
        <ele>582</ele>
        <time>2019-06-13T10:09:38Z</time>
      </trkpt>
      <trkpt lat="45.65761" lon="3.35399">
        <ele>571</ele>
        <time>2019-06-13T10:10:05Z</time>
      </trkpt>
      <trkpt lat="45.65859" lon="3.35235">
        <ele>567</ele>
        <time>2019-06-13T10:10:40Z</time>
      </trkpt>
      <trkpt lat="45.65864" lon="3.35179">
        <ele>567</ele>
        <time>2019-06-13T10:10:49Z</time>
      </trkpt>
      <trkpt lat="45.65943" lon="3.35042">
        <ele>562</ele>
        <time>2019-06-13T10:11:18Z</time>
      </trkpt>
      <trkpt lat="45.65897" lon="3.3489">
        <ele>569</ele>
        <time>2019-06-13T10:11:45Z</time>
      </trkpt>
      <trkpt lat="45.65894" lon="3.34767">
        <ele>571</ele>
        <time>2019-06-13T10:12:05Z</time>
      </trkpt>
      <trkpt lat="45.65938" lon="3.3469">
        <ele>569</ele>
        <time>2019-06-13T10:12:22Z</time>
      </trkpt>
      <trkpt lat="45.65733" lon="3.34482">
        <ele>580</ele>
        <time>2019-06-13T10:13:20Z</time>
      </trkpt>
      <trkpt lat="45.65546" lon="3.34331">
        <ele>570</ele>
        <time>2019-06-13T10:14:10Z</time>
      </trkpt>
      <trkpt lat="45.65407" lon="3.34268">
        <ele>563</ele>
        <time>2019-06-13T10:14:44Z</time>
      </trkpt>
      <trkpt lat="45.65243" lon="3.34244">
        <ele>559</ele>
        <time>2019-06-13T10:15:23Z</time>
      </trkpt>
      <trkpt lat="45.65206" lon="3.34183">
        <ele>557</ele>
        <time>2019-06-13T10:15:36Z</time>
      </trkpt>
      <trkpt lat="45.65112" lon="3.34161">
        <ele>555</ele>
        <time>2019-06-13T10:15:58Z</time>
      </trkpt>
      <trkpt lat="45.64969" lon="3.34064">
        <ele>554</ele>
        <time>2019-06-13T10:16:35Z</time>
      </trkpt>
      <trkpt lat="45.64864" lon="3.33966">
        <ele>554</ele>
        <time>2019-06-13T10:17:05Z</time>
      </trkpt>
      <trkpt lat="45.64831" lon="3.33799">
        <ele>554</ele>
        <time>2019-06-13T10:17:33Z</time>
      </trkpt>
      <trkpt lat="45.64685" lon="3.33777">
        <ele>550</ele>
        <time>2019-06-13T10:18:07Z</time>
      </trkpt>
      <trkpt lat="45.64572" lon="3.3371">
        <ele>552</ele>
        <time>2019-06-13T10:18:36Z</time>
      </trkpt>
      <trkpt lat="45.64508" lon="3.33714">
        <ele>553</ele>
        <time>2019-06-13T10:18:51Z</time>
      </trkpt>
      <trkpt lat="45.64492" lon="3.33811">
        <ele>554</ele>
        <time>2019-06-13T10:19:07Z</time>
      </trkpt>
      <trkpt lat="45.64403" lon="3.33871">
        <ele>562</ele>
        <time>2019-06-13T10:19:30Z</time>
      </trkpt>
      <trkpt lat="45.64262" lon="3.33968">
        <ele>573</ele>
        <time>2019-06-13T10:20:07Z</time>
      </trkpt>
      <trkpt lat="45.64096" lon="3.34046">
        <ele>599</ele>
        <time>2019-06-13T10:20:47Z</time>
      </trkpt>
      <trkpt lat="45.63914" lon="3.34127">
        <ele>623</ele>
        <time>2019-06-13T10:21:32Z</time>
      </trkpt>
      <trkpt lat="45.63783" lon="3.34204">
        <ele>645</ele>
        <time>2019-06-13T10:22:05Z</time>
      </trkpt>
      <trkpt lat="45.63672" lon="3.34163">
        <ele>653</ele>
        <time>2019-06-13T10:22:32Z</time>
      </trkpt>
      <trkpt lat="45.63582" lon="3.34201">
        <ele>660</ele>
        <time>2019-06-13T10:22:54Z</time>
      </trkpt>
      <trkpt lat="45.63538" lon="3.34435">
        <ele>665</ele>
        <time>2019-06-13T10:23:33Z</time>
      </trkpt>
      <trkpt lat="45.63445" lon="3.3452">
        <ele>652</ele>
        <time>2019-06-13T10:23:59Z</time>
      </trkpt>
      <trkpt lat="45.63407" lon="3.34582">
        <ele>653</ele>
        <time>2019-06-13T10:24:12Z</time>
      </trkpt>
      <trkpt lat="45.63293" lon="3.3456">
        <ele>650</ele>
        <time>2019-06-13T10:24:39Z</time>
      </trkpt>
      <trkpt lat="45.63219" lon="3.34567">
        <ele>645</ele>
        <time>2019-06-13T10:24:57Z</time>
      </trkpt>
      <trkpt lat="45.63161" lon="3.34491">
        <ele>635</ele>
        <time>2019-06-13T10:25:15Z</time>
      </trkpt>
      <trkpt lat="45.62908" lon="3.34403">
        <ele>618</ele>
        <time>2019-06-13T10:26:16Z</time>
      </trkpt>
      <trkpt lat="45.62604" lon="3.34421">
        <ele>597</ele>
        <time>2019-06-13T10:27:27Z</time>
      </trkpt>
      <trkpt lat="45.62237" lon="3.34405">
        <ele>553</ele>
        <time>2019-06-13T10:28:53Z</time>
      </trkpt>
      <trkpt lat="45.61981" lon="3.34399">
        <ele>528</ele>
        <time>2019-06-13T10:29:52Z</time>
      </trkpt>
      <trkpt lat="45.61855" lon="3.3439">
        <ele>521</ele>
        <time>2019-06-13T10:30:22Z</time>
      </trkpt>
      <trkpt lat="45.61706" lon="3.34457">
        <ele>508</ele>
        <time>2019-06-13T10:30:58Z</time>
      </trkpt>
      <trkpt lat="45.61831" lon="3.34361">
        <ele>523</ele>
        <time>2019-06-13T10:31:31Z</time>
      </trkpt>
      <trkpt lat="45.61891" lon="3.34241">
        <ele>526</ele>
        <time>2019-06-13T10:31:56Z</time>
      </trkpt>
      <trkpt lat="45.62012" lon="3.34183">
        <ele>525</ele>
        <time>2019-06-13T10:32:25Z</time>
      </trkpt>
      <trkpt lat="45.62144" lon="3.33939">
        <ele>523</ele>
        <time>2019-06-13T10:33:16Z</time>
      </trkpt>
      <trkpt lat="45.62465" lon="3.33757">
        <ele>525</ele>
        <time>2019-06-13T10:34:36Z</time>
      </trkpt>
      <trkpt lat="45.62536" lon="3.3364">
        <ele>532</ele>
        <time>2019-06-13T10:35:02Z</time>
      </trkpt>
      <trkpt lat="45.62587" lon="3.33533">
        <ele>543</ele>
        <time>2019-06-13T10:35:23Z</time>
      </trkpt>
      <trkpt lat="45.62612" lon="3.33302">
        <ele>540</ele>
        <time>2019-06-13T10:36:01Z</time>
      </trkpt>
      <trkpt lat="45.62751" lon="3.33279">
        <ele>542</ele>
        <time>2019-06-13T10:36:34Z</time>
      </trkpt>
      <trkpt lat="45.6282" lon="3.33221">
        <ele>539</ele>
        <time>2019-06-13T10:36:52Z</time>
      </trkpt>
      <trkpt lat="45.62873" lon="3.33115">
        <ele>539</ele>
        <time>2019-06-13T10:37:14Z</time>
      </trkpt>
      <trkpt lat="45.62955" lon="3.32909">
        <ele>531</ele>
        <time>2019-06-13T10:37:52Z</time>
      </trkpt>
      <trkpt lat="45.63183" lon="3.32714">
        <ele>533</ele>
        <time>2019-06-13T10:38:54Z</time>
      </trkpt>
      <trkpt lat="45.63245" lon="3.327">
        <ele>538</ele>
        <time>2019-06-13T10:39:09Z</time>
      </trkpt>
      <trkpt lat="45.63289" lon="3.32579">
        <ele>529</ele>
        <time>2019-06-13T10:39:31Z</time>
      </trkpt>
      <trkpt lat="45.63289" lon="3.32503">
        <ele>523</ele>
        <time>2019-06-13T10:39:44Z</time>
      </trkpt>
      <trkpt lat="45.63515" lon="3.32263">
        <ele>532</ele>
        <time>2019-06-13T10:40:49Z</time>
      </trkpt>
      <trkpt lat="45.63591" lon="3.32003">
        <ele>561</ele>
        <time>2019-06-13T10:41:36Z</time>
      </trkpt>
      <trkpt lat="45.63683" lon="3.3205">
        <ele>564</ele>
        <time>2019-06-13T10:41:58Z</time>
      </trkpt>
      <trkpt lat="45.63767" lon="3.3192">
        <ele>584</ele>
        <time>2019-06-13T10:42:27Z</time>
      </trkpt>
      <trkpt lat="45.63689" lon="3.31471">
        <ele>616</ele>
        <time>2019-06-13T10:43:43Z</time>
      </trkpt>
      <trkpt lat="45.6384" lon="3.31161">
        <ele>636</ele>
        <time>2019-06-13T10:44:44Z</time>
      </trkpt>
      <trkpt lat="45.63836" lon="3.31261">
        <ele>639</ele>
        <time>2019-06-13T10:45:01Z</time>
      </trkpt>
      <trkpt lat="45.6377" lon="3.31384">
        <ele>639</ele>
        <time>2019-06-13T10:45:26Z</time>
      </trkpt>
      <trkpt lat="45.63922" lon="3.31577">
        <ele>647</ele>
        <time>2019-06-13T10:46:14Z</time>
      </trkpt>
      <trkpt lat="45.64049" lon="3.31581">
        <ele>645</ele>
        <time>2019-06-13T10:46:43Z</time>
      </trkpt>
      <trkpt lat="45.64103" lon="3.31673">
        <ele>635</ele>
        <time>2019-06-13T10:47:03Z</time>
      </trkpt>
      <trkpt lat="45.64246" lon="3.31697">
        <ele>630</ele>
        <time>2019-06-13T10:47:37Z</time>
      </trkpt>
      <trkpt lat="45.64285" lon="3.31588">
        <ele>629</ele>
        <time>2019-06-13T10:47:56Z</time>
      </trkpt>
      <trkpt lat="45.64285" lon="3.3154">
        <ele>630</ele>
        <time>2019-06-13T10:48:04Z</time>
      </trkpt>
      <trkpt lat="45.64325" lon="3.31427">
        <ele>626</ele>
        <time>2019-06-13T10:48:25Z</time>
      </trkpt>
      <trkpt lat="45.64393" lon="3.31592">
        <ele>617</ele>
        <time>2019-06-13T10:48:56Z</time>
      </trkpt>
      <trkpt lat="45.64446" lon="3.3185">
        <ele>596</ele>
        <time>2019-06-13T10:49:40Z</time>
      </trkpt>
      <trkpt lat="45.64576" lon="3.31968">
        <ele>585</ele>
        <time>2019-06-13T10:50:16Z</time>
      </trkpt>
      <trkpt lat="45.64711" lon="3.32269">
        <ele>571</ele>
        <time>2019-06-13T10:51:15Z</time>
      </trkpt>
      <trkpt lat="45.64813" lon="3.32172">
        <ele>578</ele>
        <time>2019-06-13T10:51:43Z</time>
      </trkpt>
      <trkpt lat="45.65013" lon="3.32512">
        <ele>582</ele>
        <time>2019-06-13T10:52:56Z</time>
      </trkpt>
      <trkpt lat="45.65008" lon="3.32706">
        <ele>575</ele>
        <time>2019-06-13T10:53:27Z</time>
      </trkpt>
      <trkpt lat="45.65006" lon="3.3283">
        <ele>577</ele>
        <time>2019-06-13T10:53:48Z</time>
      </trkpt>
      <trkpt lat="45.6514" lon="3.32902">
        <ele>585</ele>
        <time>2019-06-13T10:54:21Z</time>
      </trkpt>
      <trkpt lat="45.65307" lon="3.32757">
        <ele>604</ele>
        <time>2019-06-13T10:55:07Z</time>
      </trkpt>
      <trkpt lat="45.65443" lon="3.32581">
        <ele>622</ele>
        <time>2019-06-13T10:55:49Z</time>
      </trkpt>
      <trkpt lat="45.65617" lon="3.32469">
        <ele>632</ele>
        <time>2019-06-13T10:56:34Z</time>
      </trkpt>
      <trkpt lat="45.65703" lon="3.32126">
        <ele>642</ele>
        <time>2019-06-13T10:57:34Z</time>
      </trkpt>
      <trkpt lat="45.65861" lon="3.32">
        <ele>643</ele>
        <time>2019-06-13T10:58:16Z</time>
      </trkpt>
      <trkpt lat="45.66058" lon="3.31884">
        <ele>655</ele>
        <time>2019-06-13T10:59:06Z</time>
      </trkpt>
      <trkpt lat="45.66227" lon="3.31877">
        <ele>670</ele>
        <time>2019-06-13T10:59:45Z</time>
      </trkpt>
      <trkpt lat="45.6629" lon="3.31869">
        <ele>676</ele>
        <time>2019-06-13T11:00:00Z</time>
      </trkpt>
      <trkpt lat="45.66338" lon="3.31907">
        <ele>685</ele>
        <time>2019-06-13T11:00:13Z</time>
      </trkpt>
      <trkpt lat="45.66305" lon="3.31935">
        <ele>686</ele>
        <time>2019-06-13T11:00:22Z</time>
      </trkpt>
      <trkpt lat="45.66335" lon="3.31991">
        <ele>698</ele>
        <time>2019-06-13T11:00:33Z</time>
      </trkpt>
      <trkpt lat="45.66421" lon="3.32036">
        <ele>704</ele>
        <time>2019-06-13T11:00:54Z</time>
      </trkpt>
      <trkpt lat="45.665" lon="3.32085">
        <ele>702</ele>
        <time>2019-06-13T11:01:15Z</time>
      </trkpt>
      <trkpt lat="45.66577" lon="3.32182">
        <ele>708</ele>
        <time>2019-06-13T11:01:39Z</time>
      </trkpt>
      <trkpt lat="45.66701" lon="3.32242">
        <ele>704</ele>
        <time>2019-06-13T11:02:09Z</time>
      </trkpt>
      <trkpt lat="45.66685" lon="3.32336">
        <ele>706</ele>
        <time>2019-06-13T11:02:25Z</time>
      </trkpt>
      <trkpt lat="45.66746" lon="3.32448">
        <ele>683</ele>
        <time>2019-06-13T11:02:48Z</time>
      </trkpt>
      <trkpt lat="45.66909" lon="3.32566">
        <ele>666</ele>
        <time>2019-06-13T11:03:31Z</time>
      </trkpt>
      <trkpt lat="45.66999" lon="3.32624">
        <ele>663</ele>
        <time>2019-06-13T11:03:54Z</time>
      </trkpt>
      <trkpt lat="45.67175" lon="3.32532">
        <ele>659</ele>
        <time>2019-06-13T11:04:38Z</time>
      </trkpt>
      <trkpt lat="45.67323" lon="3.32583">
        <ele>650</ele>
        <time>2019-06-13T11:05:13Z</time>
      </trkpt>
      <trkpt lat="45.67493" lon="3.32568">
        <ele>652</ele>
        <time>2019-06-13T11:05:53Z</time>
      </trkpt>
      <trkpt lat="45.67605" lon="3.32607">
        <ele>645</ele>
        <time>2019-06-13T11:06:20Z</time>
      </trkpt>
      <trkpt lat="45.67697" lon="3.3263">
        <ele>639</ele>
        <time>2019-06-13T11:06:42Z</time>
      </trkpt>
      <trkpt lat="45.67836" lon="3.325">
        <ele>624</ele>
        <time>2019-06-13T11:07:20Z</time>
      </trkpt>
      <trkpt lat="45.67981" lon="3.32459">
        <ele>611</ele>
        <time>2019-06-13T11:07:55Z</time>
      </trkpt>
      <trkpt lat="45.68054" lon="3.32525">
        <ele>606</ele>
        <time>2019-06-13T11:08:15Z</time>
      </trkpt>
      <trkpt lat="45.68084" lon="3.3253">
        <ele>602</ele>
        <time>2019-06-13T11:08:22Z</time>
      </trkpt>
      <trkpt lat="45.6815" lon="3.32432">
        <ele>594</ele>
        <time>2019-06-13T11:08:44Z</time>
      </trkpt>
      <trkpt lat="45.68251" lon="3.3231">
        <ele>582</ele>
        <time>2019-06-13T11:09:15Z</time>
      </trkpt>
      <trkpt lat="45.68302" lon="3.322">
        <ele>576</ele>
        <time>2019-06-13T11:09:37Z</time>
      </trkpt>
      <trkpt lat="45.68311" lon="3.32125">
        <ele>576</ele>
        <time>2019-06-13T11:09:49Z</time>
      </trkpt>
      <trkpt lat="45.68355" lon="3.32111">
        <ele>575</ele>
        <time>2019-06-13T11:10:00Z</time>
      </trkpt>
      <trkpt lat="45.6847" lon="3.32115">
        <ele>565</ele>
        <time>2019-06-13T11:10:26Z</time>
      </trkpt>
      <trkpt lat="45.68534" lon="3.32072">
        <ele>557</ele>
        <time>2019-06-13T11:10:43Z</time>
      </trkpt>
      <trkpt lat="45.68603" lon="3.32111">
        <ele>549</ele>
        <time>2019-06-13T11:11:00Z</time>
      </trkpt>
      <trkpt lat="45.68647" lon="3.32114">
        <ele>547</ele>
        <time>2019-06-13T11:11:11Z</time>
      </trkpt>
      <trkpt lat="45.6866" lon="3.32143">
        <ele>545</ele>
        <time>2019-06-13T11:11:16Z</time>
      </trkpt>
      <trkpt lat="45.68718" lon="3.32168">
        <ele>542</ele>
        <time>2019-06-13T11:11:30Z</time>
      </trkpt>
      <trkpt lat="45.688" lon="3.32167">
        <ele>538</ele>
        <time>2019-06-13T11:11:50Z</time>
      </trkpt>
      <trkpt lat="45.68908" lon="3.32132">
        <ele>528</ele>
        <time>2019-06-13T11:12:15Z</time>
      </trkpt>
      <trkpt lat="45.69139" lon="3.32143">
        <ele>501</ele>
        <time>2019-06-13T11:13:09Z</time>
      </trkpt>
      <trkpt lat="45.69228" lon="3.32124">
        <ele>492</ele>
        <time>2019-06-13T11:13:30Z</time>
      </trkpt>
      <trkpt lat="45.6935" lon="3.3216">
        <ele>481</ele>
        <time>2019-06-13T11:13:59Z</time>
      </trkpt>
      <trkpt lat="45.69386" lon="3.32131">
        <ele>480</ele>
        <time>2019-06-13T11:14:09Z</time>
      </trkpt>
      <trkpt lat="45.69405" lon="3.32163">
        <ele>479</ele>
        <time>2019-06-13T11:14:16Z</time>
      </trkpt>
      <trkpt lat="45.69526" lon="3.32205">
        <ele>484</ele>
        <time>2019-06-13T11:14:45Z</time>
      </trkpt>
      <trkpt lat="45.69644" lon="3.32245">
        <ele>485</ele>
        <time>2019-06-13T11:15:13Z</time>
      </trkpt>
      <trkpt lat="45.69758" lon="3.32228">
        <ele>483</ele>
        <time>2019-06-13T11:15:40Z</time>
      </trkpt>
      <trkpt lat="45.69926" lon="3.32297">
        <ele>477</ele>
        <time>2019-06-13T11:16:21Z</time>
      </trkpt>
      <trkpt lat="45.70047" lon="3.32328">
        <ele>473</ele>
        <time>2019-06-13T11:16:50Z</time>
      </trkpt>
      <trkpt lat="45.70227" lon="3.32431">
        <ele>463</ele>
        <time>2019-06-13T11:17:35Z</time>
      </trkpt>
      <trkpt lat="45.70352" lon="3.32513">
        <ele>444</ele>
        <time>2019-06-13T11:18:07Z</time>
      </trkpt>
      <trkpt lat="45.70515" lon="3.32598">
        <ele>425</ele>
        <time>2019-06-13T11:18:48Z</time>
      </trkpt>
      <trkpt lat="45.70647" lon="3.32689">
        <ele>409</ele>
        <time>2019-06-13T11:19:22Z</time>
      </trkpt>
      <trkpt lat="45.70799" lon="3.32779">
        <ele>396</ele>
        <time>2019-06-13T11:20:00Z</time>
      </trkpt>
      <trkpt lat="45.70855" lon="3.32835">
        <ele>391</ele>
        <time>2019-06-13T11:20:16Z</time>
      </trkpt>
      <trkpt lat="45.70882" lon="3.32927">
        <ele>385</ele>
        <time>2019-06-13T11:20:32Z</time>
      </trkpt>
      <trkpt lat="45.70957" lon="3.33082">
        <ele>381</ele>
        <time>2019-06-13T11:21:03Z</time>
      </trkpt>
      <trkpt lat="45.71207" lon="3.33073">
        <ele>375</ele>
        <time>2019-06-13T11:22:02Z</time>
      </trkpt>
      <trkpt lat="45.71206" lon="3.33226">
        <ele>377</ele>
        <time>2019-06-13T11:22:26Z</time>
      </trkpt>
      <trkpt lat="45.71427" lon="3.33264">
        <ele>380</ele>
        <time>2019-06-13T11:23:18Z</time>
      </trkpt>
      <trkpt lat="45.71611" lon="3.33387">
        <ele>379</ele>
        <time>2019-06-13T11:24:06Z</time>
      </trkpt>
      <trkpt lat="45.72033" lon="3.33557">
        <ele>375</ele>
        <time>2019-06-13T11:25:48Z</time>
      </trkpt>
      <trkpt lat="45.72112" lon="3.33656">
        <ele>372</ele>
        <time>2019-06-13T11:26:13Z</time>
      </trkpt>
      <trkpt lat="45.72167" lon="3.33689">
        <ele>372</ele>
        <time>2019-06-13T11:26:27Z</time>
      </trkpt>
      <trkpt lat="45.72253" lon="3.33707">
        <ele>370</ele>
        <time>2019-06-13T11:26:47Z</time>
      </trkpt>
      <trkpt lat="45.72299" lon="3.33706">
        <ele>366</ele>
        <time>2019-06-13T11:26:58Z</time>
      </trkpt>
      <trkpt lat="45.7231" lon="3.33748">
        <ele>366</ele>
        <time>2019-06-13T11:27:05Z</time>
      </trkpt>
      <trkpt lat="45.72348" lon="3.33744">
        <ele>363</ele>
        <time>2019-06-13T11:27:14Z</time>
      </trkpt>
      <trkpt lat="45.72396" lon="3.33769">
        <ele>359</ele>
        <time>2019-06-13T11:27:26Z</time>
      </trkpt>
      <trkpt lat="45.72373" lon="3.33948">
        <ele>358</ele>
        <time>2019-06-13T11:27:56Z</time>
      </trkpt>
      <trkpt lat="45.72352" lon="3.34074">
        <ele>359</ele>
        <time>2019-06-13T11:28:17Z</time>
      </trkpt>
      <trkpt lat="45.72368" lon="3.34215">
        <ele>363</ele>
        <time>2019-06-13T11:28:40Z</time>
      </trkpt>
      <trkpt lat="45.72424" lon="3.34355">
        <ele>369</ele>
        <time>2019-06-13T11:29:06Z</time>
      </trkpt>
    </trkseg>
  </trk>
</gpx>